createdAt,value
2018-12-04T00:00:51.187Z,96837.41
2018-12-04T00:03:24.012Z,96835.92
2018-12-04T00:05:54.930Z,96829.89
2018-12-04T00:08:27.625Z,96826.77
2018-12-04T00:11:00.462Z,96821.77
2018-12-04T00:13:37.209Z,96810.42
2018-12-04T00:16:07.927Z,96816.42
2018-12-04T00:18:40.870Z,96825.19
2018-12-04T00:21:13.746Z,96843.89
2018-12-04T00:23:46.570Z,96829.38
2018-12-04T00:28:47.822Z,96841.54
2018-12-04T00:31:20.772Z,96836.16
2018-12-04T00:33:57.517Z,96834.34
2018-12-04T00:36:30.307Z,96842.72
2018-12-04T00:39:04.372Z,96860.11
2018-12-04T00:41:36.948Z,96867.91
2018-12-04T00:44:09.792Z,96894.00
2018-12-04T00:46:42.736Z,96909.41
2018-12-04T00:49:18.987Z,96915.44
2018-12-04T00:51:51.129Z,96926.23
2018-12-04T00:54:23.352Z,96925.78
2018-12-04T00:56:53.469Z,96931.92
2018-12-04T00:59:26.318Z,96948.70
2018-12-04T01:01:58.635Z,96953.84
2018-12-04T01:04:31.440Z,96959.80
2018-12-04T01:07:08.276Z,96959.48
2018-12-04T01:09:41.307Z,96950.92
2018-12-04T01:12:18.344Z,96937.48
2018-12-04T01:14:51.294Z,96917.00
2018-12-04T01:17:24.244Z,96906.31
2018-12-04T01:19:57.099Z,96972.05
2018-12-04T01:22:28.164Z,97001.19
2018-12-04T01:25:01.033Z,97013.11
2018-12-04T01:45:14.005Z,97043.34
2018-12-04T01:47:46.345Z,97046.09
2018-12-04T01:50:19.354Z,97042.03
2018-12-04T01:52:55.452Z,97032.69
2018-12-04T01:55:28.436Z,97018.92
2018-12-04T01:58:04.714Z,97003.30
2018-12-04T02:00:37.761Z,96995.59
2018-12-04T02:03:11.336Z,96974.82
2018-12-04T02:05:47.598Z,96953.91
2018-12-04T02:08:18.391Z,96945.52
2018-12-04T02:10:50.401Z,96930.14
2018-12-04T02:13:28.253Z,96926.44
2018-12-04T02:16:01.104Z,96946.73
2018-12-04T02:18:33.912Z,96952.02
2018-12-04T02:21:10.878Z,96986.61
2018-12-04T02:23:47.940Z,96984.91
2018-12-04T02:26:24.728Z,96968.69
2018-12-04T02:28:57.600Z,96982.27
2018-12-04T02:31:29.694Z,96984.74
2018-12-04T02:34:06.633Z,96969.76
2018-12-04T02:36:39.394Z,96986.81
2018-12-04T02:39:12.120Z,96988.44
2018-12-04T02:41:44.951Z,96988.42
2018-12-04T02:49:19.907Z,96978.44
2018-12-04T02:51:52.876Z,96974.64
2018-12-04T02:54:25.010Z,96971.79
2018-12-04T02:56:57.023Z,96967.85
2018-12-04T02:59:33.190Z,96973.02
2018-12-04T03:02:09.986Z,96973.42
2018-12-04T03:04:46.962Z,96986.26
2018-12-04T03:07:19.856Z,96984.34
2018-12-04T03:09:52.996Z,96981.59
2018-12-04T03:12:29.819Z,96988.42
2018-12-04T03:15:02.344Z,97000.58
2018-12-04T03:17:35.212Z,97007.28
2018-12-04T03:20:07.424Z,96994.75
2018-12-04T03:22:40.430Z,97018.92
2018-12-04T03:25:12.449Z,97008.48
2018-12-04T03:27:49.114Z,97019.15
2018-12-04T03:30:23.111Z,97009.07
2018-12-04T03:32:55.127Z,97018.52
2018-12-04T03:35:28.007Z,97011.67
2018-12-04T03:38:00.888Z,97004.68
2018-12-04T03:40:38.066Z,97006.04
2018-12-04T03:43:15.323Z,97010.02
2018-12-04T03:45:52.277Z,97010.67
2018-12-04T03:48:29.101Z,97012.07
2018-12-04T03:53:33.336Z,97012.41
2018-12-04T03:56:06.525Z,97011.80
2018-12-04T03:58:39.076Z,97022.34
2018-12-04T04:01:11.867Z,97034.66
2018-12-04T04:03:43.872Z,97033.34
2018-12-04T04:06:19.957Z,97033.96
2018-12-04T04:08:52.762Z,97018.34
2018-12-04T04:11:25.716Z,97027.75
2018-12-04T04:13:56.540Z,97019.03
2018-12-04T04:16:29.497Z,97024.24
2018-12-04T04:19:06.318Z,97026.26
2018-12-04T04:21:39.673Z,97027.87
2018-12-04T04:24:12.238Z,97021.65
2018-12-04T04:26:49.324Z,97019.31
2018-12-04T04:29:25.590Z,97022.16
2018-12-04T04:31:58.702Z,97026.94
2018-12-04T04:34:34.768Z,97028.73
2018-12-04T04:37:07.949Z,97035.57
2018-12-04T04:39:40.645Z,97031.86
2018-12-04T04:42:13.565Z,97052.37
2018-12-04T04:44:44.492Z,97041.83
2018-12-04T04:47:17.289Z,97055.27
2018-12-04T04:49:48.021Z,97059.44
2018-12-04T04:52:23.035Z,97062.06
2018-12-04T04:55:29.545Z,97072.64
2018-12-04T04:58:01.588Z,97074.06
2018-12-04T05:00:37.671Z,97072.69
2018-12-04T05:03:10.585Z,97083.36
2018-12-04T05:05:43.352Z,97102.82
2018-12-04T05:08:21.188Z,97101.20
2018-12-04T05:10:58.033Z,97099.98
2018-12-04T05:13:30.269Z,97110.43
2018-12-04T05:16:02.444Z,97126.00
2018-12-04T05:18:34.501Z,97117.11
2018-12-04T05:21:07.426Z,97119.25
2018-12-04T05:23:38.383Z,97136.69
2018-12-04T05:26:10.650Z,97133.92
2018-12-04T05:28:47.885Z,97126.17
2018-12-04T05:31:19.990Z,97127.98
2018-12-04T05:33:56.608Z,97132.02
2018-12-04T05:36:29.545Z,97136.53
2018-12-04T05:39:07.644Z,97146.78
2018-12-04T05:41:40.702Z,97143.59
2018-12-04T05:44:16.771Z,97148.43
2018-12-04T05:46:49.589Z,97155.14
2018-12-04T05:49:25.690Z,97164.41
2018-12-04T05:51:58.234Z,97168.97
2018-12-04T05:54:34.701Z,97182.39
2018-12-04T05:57:11.747Z,97182.61
2018-12-04T05:59:44.625Z,97183.97
2018-12-04T06:02:21.867Z,97180.34
2018-12-04T06:04:54.115Z,97191.78
2018-12-04T06:07:31.045Z,97195.95
2018-12-04T06:10:03.289Z,97203.02
2018-12-04T06:12:39.335Z,97212.23
2018-12-04T06:15:11.400Z,97217.08
2018-12-04T06:17:47.618Z,97213.50
2018-12-04T06:20:20.129Z,97229.98
2018-12-04T06:22:52.560Z,97227.61
2018-12-04T06:25:29.558Z,97240.97
2018-12-04T06:28:02.431Z,97244.67
2018-12-04T06:30:35.346Z,97247.31
2018-12-04T06:33:12.116Z,97262.63
2018-12-04T06:35:48.151Z,97260.28
2018-12-04T06:38:19.988Z,97255.28
2018-12-04T06:40:52.922Z,97270.48
2018-12-04T06:43:25.254Z,97262.13
2018-12-04T06:45:58.096Z,97267.22
2018-12-04T06:48:31.027Z,97276.41
2018-12-04T06:51:07.134Z,97264.00
2018-12-04T06:53:43.149Z,97264.23
2018-12-04T06:58:49.857Z,97276.55
2018-12-04T07:01:22.904Z,97279.15
2018-12-04T07:03:54.910Z,97291.00
2018-12-04T07:06:27.859Z,97298.27
2018-12-04T07:08:59.979Z,97308.32
2018-12-04T07:11:32.867Z,97311.12
2018-12-04T07:14:09.690Z,97308.29
2018-12-04T07:16:41.704Z,97309.72
2018-12-04T07:19:17.807Z,97311.52
2018-12-04T07:21:56.237Z,97312.85
2018-12-04T07:24:26.464Z,97313.27
2018-12-04T07:27:03.364Z,97321.94
2018-12-04T07:29:36.831Z,97319.14
2018-12-04T07:32:13.599Z,97317.92
2018-12-04T07:34:46.318Z,97324.67
2018-12-04T07:37:19.174Z,97325.48
2018-12-04T07:39:56.167Z,97338.56
2018-12-04T07:42:28.821Z,97346.45
2018-12-04T07:45:01.756Z,97343.55
2018-12-04T07:47:34.715Z,97336.81
2018-12-04T07:50:10.736Z,97347.09
2018-12-04T07:52:42.864Z,97359.69
2018-12-04T07:55:15.694Z,97350.38
2018-12-04T07:57:45.812Z,97351.27
2018-12-04T08:00:18.715Z,97363.13
2018-12-04T08:02:54.850Z,97365.23
2018-12-04T08:05:26.983Z,97361.98
2018-12-04T08:08:03.022Z,97370.87
2018-12-04T08:10:35.973Z,97371.19
2018-12-04T08:13:12.053Z,97379.70
2018-12-04T08:15:44.945Z,97372.30
2018-12-04T08:18:22.086Z,97357.66
2018-12-04T08:20:52.627Z,97352.83
2018-12-04T08:23:29.504Z,97357.69
2018-12-04T08:26:02.469Z,97373.45
2018-12-04T08:28:39.285Z,97379.80
2018-12-04T08:31:11.459Z,97377.78
2018-12-04T08:33:44.428Z,97363.22
2018-12-04T08:36:16.643Z,97362.65
2018-12-04T08:38:48.651Z,97376.41
2018-12-04T08:41:20.915Z,97383.30
2018-12-04T08:43:51.813Z,97385.81
2018-12-04T08:46:22.017Z,97397.30
2018-12-04T08:48:54.017Z,97394.17
2018-12-04T08:51:27.087Z,97380.94
2018-12-04T08:54:04.024Z,97394.17
2018-12-04T08:56:36.235Z,97402.51
2018-12-04T08:59:12.360Z,97399.19
2018-12-04T09:01:44.415Z,97398.80
2018-12-04T09:04:20.500Z,97403.14
2018-12-04T09:06:50.657Z,97405.39
2018-12-04T09:09:23.524Z,97425.58
2018-12-04T09:11:54.454Z,97408.95
2018-12-04T09:14:25.477Z,97410.52
2018-12-04T09:16:56.222Z,97412.25
2018-12-04T09:19:27.036Z,97419.70
2018-12-04T09:21:57.798Z,97424.05
2018-12-04T09:24:31.054Z,97409.63
2018-12-04T09:27:07.644Z,97403.83
2018-12-04T09:29:40.584Z,97406.05
2018-12-04T09:32:13.536Z,97410.82
2018-12-04T09:34:46.504Z,97395.19
2018-12-04T09:37:19.377Z,97393.76
2018-12-04T09:39:56.170Z,97385.34
2018-12-04T09:42:27.219Z,97381.45
2018-12-04T09:44:59.843Z,97385.80
2018-12-04T09:47:30.123Z,97391.44
2018-12-04T09:50:03.213Z,97380.52
2018-12-04T09:52:36.039Z,97381.80
2018-12-04T09:55:08.941Z,97378.22
2018-12-04T09:57:41.776Z,97378.37
2018-12-04T10:00:15.052Z,97374.58
2018-12-04T10:02:45.852Z,97368.39
2018-12-04T10:05:18.677Z,97365.63
2018-12-04T10:07:54.848Z,97374.08
2018-12-04T10:10:25.723Z,97365.36
2018-12-04T10:12:58.660Z,97378.93
2018-12-04T10:15:29.436Z,97366.34
2018-12-04T10:18:06.164Z,97367.59
2018-12-04T10:20:39.096Z,97360.80
2018-12-04T10:23:16.105Z,97359.75
2018-12-04T10:25:50.634Z,97361.98
2018-12-04T10:28:22.803Z,97366.63
2018-12-04T10:30:58.894Z,97361.24
2018-12-04T10:33:35.418Z,97354.27
2018-12-04T10:36:06.057Z,97351.78
2018-12-04T10:38:38.597Z,97346.38
2018-12-04T10:41:15.339Z,97347.23
2018-12-04T10:43:46.300Z,97355.09
2018-12-04T10:46:19.103Z,97357.80
2018-12-04T10:48:51.825Z,97356.33
2018-12-04T10:51:24.853Z,97352.41
2018-12-04T10:53:57.680Z,97349.44
2018-12-04T10:56:30.887Z,97346.27
2018-12-04T10:59:03.509Z,97351.76
2018-12-04T11:01:41.396Z,97344.98
2018-12-04T11:04:12.991Z,97344.11
2018-12-04T11:06:46.236Z,97351.81
2018-12-04T11:09:18.933Z,97354.59
2018-12-04T11:11:51.872Z,97345.84
2018-12-04T11:14:28.620Z,97354.61
2018-12-04T11:17:01.606Z,97349.97
2018-12-04T11:19:34.521Z,97350.48
2018-12-04T11:22:10.577Z,97356.27
2018-12-04T11:24:43.376Z,97357.49
2018-12-04T11:27:19.553Z,97362.82
2018-12-04T11:29:52.208Z,97368.52
2018-12-04T11:32:24.174Z,97356.06
2018-12-04T11:34:57.097Z,97358.86
2018-12-04T11:37:29.751Z,97370.44
2018-12-04T11:40:02.300Z,97372.45
2018-12-04T11:42:35.123Z,97367.51
2018-12-04T11:45:06.183Z,97378.72
2018-12-04T11:47:36.532Z,97376.76
2018-12-04T11:50:07.721Z,97372.51
2018-12-04T11:52:38.118Z,97376.54
2018-12-04T11:55:11.465Z,97372.52
2018-12-04T11:57:43.636Z,97372.91
2018-12-04T12:00:21.217Z,97371.05
2018-12-04T12:02:53.569Z,97377.20
2018-12-04T12:05:29.390Z,97374.95
2018-12-04T12:10:42.652Z,97382.00
2018-12-04T12:13:15.425Z,97383.05
2018-12-04T12:15:45.703Z,97384.38
2018-12-04T12:18:16.591Z,97379.83
2018-12-04T12:20:49.674Z,97385.20
2018-12-04T12:23:22.464Z,97392.38
2018-12-04T12:25:53.253Z,97399.67
2018-12-04T12:28:24.008Z,97399.53
2018-12-04T12:30:58.863Z,97396.91
2018-12-04T12:33:35.088Z,97401.52
2018-12-04T12:36:08.074Z,97408.09
2018-12-04T12:38:39.963Z,97403.48
2018-12-04T12:41:12.128Z,97411.33
2018-12-04T12:43:42.781Z,97402.20
2018-12-04T12:46:15.511Z,97413.84
2018-12-04T12:48:48.308Z,97420.07
2018-12-04T12:51:19.027Z,97421.87
2018-12-04T12:53:51.148Z,97420.05
2018-12-04T12:56:29.073Z,97429.53
2018-12-04T12:59:02.029Z,97424.93
2018-12-04T13:01:34.963Z,97432.37
2018-12-04T13:04:07.542Z,97443.02
2018-12-04T13:06:39.582Z,97440.77
2018-12-04T13:09:16.385Z,97448.34
2018-12-04T13:11:49.272Z,97439.81
2018-12-04T13:14:22.181Z,97450.43
2018-12-04T13:16:59.204Z,97454.30
2018-12-04T13:19:35.249Z,97471.31
2018-12-04T13:22:07.728Z,97466.42
2018-12-04T13:24:41.609Z,97483.30
2018-12-04T13:27:13.852Z,97483.66
2018-12-04T13:29:45.884Z,97493.30
2018-12-04T13:32:22.060Z,97500.41
2018-12-04T13:34:55.161Z,97497.41
2018-12-04T13:37:27.237Z,97492.55
2018-12-04T13:40:00.040Z,97510.11
2018-12-04T13:42:32.808Z,97512.90
2018-12-04T13:45:06.429Z,97520.59
2018-12-04T13:47:37.334Z,97520.59
2018-12-04T13:50:07.985Z,97532.25
2018-12-04T13:52:38.766Z,97526.15
2018-12-04T13:55:11.622Z,97537.16
2018-12-04T13:57:50.756Z,97543.59
2018-12-04T14:00:23.383Z,97542.22
2018-12-04T14:02:54.237Z,97546.31
2018-12-04T14:05:27.038Z,97555.55
2018-12-04T14:07:59.700Z,97567.80
2018-12-04T14:10:32.711Z,97566.55
2018-12-04T14:13:05.703Z,97560.13
2018-12-04T14:18:22.178Z,97572.25
2018-12-04T14:20:54.932Z,97577.58
2018-12-04T14:23:25.673Z,97567.40
2018-12-04T14:26:02.743Z,97571.05
2018-12-04T14:28:38.908Z,97581.09
2018-12-04T14:31:11.799Z,97596.50
2018-12-04T14:33:44.892Z,97592.72
2018-12-04T14:36:15.905Z,97599.03
2018-12-04T14:38:55.837Z,97600.75
2018-12-04T14:41:27.941Z,97601.99
2018-12-04T14:44:04.093Z,97606.30
2018-12-04T14:46:36.177Z,97616.54
2018-12-04T14:49:06.372Z,97603.06
2018-12-04T14:51:39.269Z,97619.95
2018-12-04T14:54:16.087Z,97621.05
2018-12-04T14:56:46.828Z,97626.38
2018-12-04T14:59:17.860Z,97633.84
2018-12-04T15:01:54.455Z,97626.48
2018-12-04T15:04:27.110Z,97626.40
2018-12-04T15:07:03.843Z,97622.25
2018-12-04T15:09:40.431Z,97621.94
2018-12-04T15:12:11.323Z,97622.58
2018-12-04T15:14:41.898Z,97628.72
2018-12-04T15:17:14.570Z,97623.00
2018-12-04T15:19:47.556Z,97633.81
2018-12-04T15:22:24.302Z,97636.30
2018-12-04T15:24:57.205Z,97647.41
2018-12-04T15:27:30.686Z,97643.00
2018-12-04T15:30:04.230Z,97656.48
2018-12-04T15:32:37.914Z,97665.30
2018-12-04T15:35:14.252Z,97675.50
2018-12-04T15:37:47.040Z,97686.83
2018-12-04T15:40:20.222Z,97688.95
2018-12-04T15:42:52.632Z,97685.09
2018-12-04T15:45:25.654Z,97700.67
2018-12-04T15:47:58.667Z,97704.21
2018-12-04T15:50:35.483Z,97715.53
2018-12-04T15:53:08.187Z,97706.33
2018-12-04T15:55:41.206Z,97719.44
2018-12-04T15:58:14.068Z,97725.20
2018-12-04T16:00:50.208Z,97730.55
2018-12-04T16:03:26.439Z,97727.30
2018-12-04T16:06:03.824Z,97744.76
2018-12-04T16:08:35.863Z,97757.46
2018-12-04T16:11:08.633Z,97764.18
2018-12-04T16:13:39.155Z,97785.64
2018-12-04T16:16:11.864Z,97783.23
2018-12-04T16:18:48.438Z,97786.92
2018-12-04T16:21:25.676Z,97793.88
2018-12-04T16:23:58.566Z,97797.69
2018-12-04T16:26:31.512Z,97798.99
2018-12-04T16:29:07.824Z,97802.77
2018-12-04T16:31:40.768Z,97815.10
2018-12-04T16:34:12.016Z,97809.80
2018-12-04T16:36:44.473Z,97814.45
2018-12-04T16:39:15.208Z,97818.63
2018-12-04T16:41:47.370Z,97823.34
2018-12-04T16:44:18.047Z,97831.59
2018-12-04T16:46:51.021Z,97834.13
2018-12-04T16:49:24.019Z,97850.05
2018-12-04T16:52:01.061Z,97854.36
2018-12-04T16:54:34.240Z,97855.59
2018-12-04T16:57:10.894Z,97854.27
2018-12-04T16:59:42.014Z,97848.61
2018-12-04T17:02:15.040Z,97862.44
2018-12-04T17:04:47.838Z,97872.81
2018-12-04T17:07:18.931Z,97868.48
2018-12-04T17:09:52.080Z,97882.42
2018-12-04T17:12:24.212Z,97874.83
2018-12-04T17:15:00.420Z,97871.11
2018-12-04T17:17:37.246Z,97869.95
2018-12-04T17:20:13.437Z,97879.27
2018-12-04T17:22:46.892Z,97887.67
2018-12-04T17:25:19.433Z,97894.38
2018-12-04T17:27:52.383Z,97892.59
2018-12-04T17:30:25.685Z,97889.86
2018-12-04T17:32:58.709Z,97897.55
2018-12-04T17:35:31.150Z,97896.01
2018-12-04T17:38:04.184Z,97895.14
2018-12-04T17:40:36.917Z,97906.06
2018-12-04T17:43:09.966Z,97910.67
2018-12-04T17:45:40.855Z,97919.19
2018-12-04T17:48:13.891Z,97929.70
2018-12-04T17:50:46.701Z,97926.48
2018-12-04T17:53:22.818Z,97932.82
2018-12-04T17:56:00.907Z,97932.12
2018-12-04T17:58:31.599Z,97919.98
2018-12-04T18:01:03.939Z,97934.13
2018-12-04T18:03:35.734Z,97956.94
2018-12-04T18:06:08.674Z,97964.47
2018-12-04T18:08:40.746Z,97981.86
2018-12-04T18:11:19.242Z,97984.07
2018-12-04T18:13:52.118Z,97995.16
2018-12-04T18:16:24.811Z,97995.79
2018-12-04T18:18:57.783Z,98008.73
2018-12-04T18:21:30.707Z,98011.88
2018-12-04T18:24:07.752Z,97997.79
2018-12-04T18:26:43.837Z,98007.16
2018-12-04T18:29:16.913Z,98015.98
2018-12-04T18:31:49.856Z,98015.19
2018-12-04T18:34:22.688Z,98023.20
2018-12-04T18:37:00.708Z,98024.66
2018-12-04T18:39:33.528Z,98015.15
2018-12-04T18:42:06.492Z,98018.33
2018-12-04T18:44:40.179Z,98014.55
2018-12-04T18:47:13.575Z,98012.36
2018-12-04T18:49:50.305Z,98021.39
2018-12-04T18:52:24.266Z,98019.35
2018-12-04T18:55:02.236Z,98031.06
2018-12-04T18:57:34.370Z,98031.20
2018-12-04T19:00:08.246Z,98036.98
2018-12-04T19:02:41.089Z,98047.21
2018-12-04T19:05:17.166Z,98056.72
2018-12-04T19:07:48.403Z,98050.97
2018-12-04T19:10:25.160Z,98063.39
2018-12-04T19:13:02.786Z,98059.48
2018-12-04T19:15:36.339Z,98063.78
2018-12-04T19:18:09.282Z,98071.89
2018-12-04T19:20:46.374Z,98071.73
2018-12-04T19:23:19.219Z,98071.84
2018-12-04T19:25:57.282Z,98074.38
2018-12-04T19:31:02.873Z,98055.70
2018-12-04T19:36:11.382Z,98047.14
2018-12-04T19:38:48.391Z,98047.23
2018-12-04T19:41:19.319Z,98039.92
2018-12-04T19:43:56.456Z,98057.89
2018-12-04T19:46:29.634Z,98069.59
2018-12-04T19:49:06.076Z,98070.13
2018-12-04T19:51:36.756Z,98068.05
2018-12-04T19:54:13.971Z,98069.00
2018-12-04T19:56:46.534Z,98069.82
2018-12-04T19:59:18.708Z,98080.87
2018-12-04T20:01:51.471Z,98081.83
2018-12-04T20:04:24.411Z,98091.69
2018-12-04T20:06:57.288Z,98100.70
2018-12-04T20:09:34.197Z,98105.05
2018-12-04T20:12:07.204Z,98114.73
2018-12-04T20:14:43.404Z,98109.08
2018-12-04T20:17:14.314Z,98111.97
2018-12-04T20:19:50.493Z,98100.91
2018-12-04T20:22:23.363Z,98101.00
2018-12-04T20:24:56.447Z,98105.15
2018-12-04T20:27:29.315Z,98109.34
2018-12-04T20:30:06.812Z,98126.78
2018-12-04T20:32:39.433Z,98136.27
2018-12-04T20:35:12.201Z,98135.86
2018-12-04T20:42:50.434Z,98149.41
2018-12-04T20:45:27.236Z,98146.90
2018-12-04T20:48:00.056Z,98147.31
2018-12-04T20:50:37.010Z,98159.72
2018-12-04T20:53:07.209Z,98143.45
2018-12-04T20:55:39.426Z,98163.90
2018-12-04T20:58:10.378Z,98165.78
2018-12-04T21:00:46.482Z,98169.72
2018-12-04T21:03:18.745Z,98177.14
2018-12-04T21:05:51.705Z,98176.37
2018-12-04T21:08:23.889Z,98175.50
2018-12-04T21:10:56.819Z,98179.41
2018-12-04T21:13:29.093Z,98181.77
2018-12-04T21:16:01.119Z,98184.36
2018-12-04T21:18:38.183Z,98176.78
2018-12-04T21:21:14.294Z,98176.48
2018-12-04T21:23:47.296Z,98186.98
2018-12-04T21:26:23.572Z,98183.72
2018-12-04T21:29:07.138Z,98183.03
2018-12-04T21:31:49.814Z,98192.98
2018-12-04T21:34:25.744Z,98188.83
2018-12-04T21:37:04.138Z,98195.12
2018-12-04T21:39:36.127Z,98202.80
2018-12-04T21:42:14.381Z,98215.46
2018-12-04T21:59:51.087Z,98235.01
2018-12-04T22:02:23.282Z,98243.16
2018-12-04T22:05:07.336Z,98249.70
2018-12-04T22:07:40.796Z,98250.42
2018-12-04T22:10:14.244Z,98258.81
2018-12-04T22:12:51.381Z,98252.52
2018-12-04T22:15:28.382Z,98258.11
2018-12-04T22:18:04.945Z,98261.59
2018-12-04T22:20:39.812Z,98269.44
2018-12-04T22:23:12.812Z,98288.19
2018-12-04T22:25:45.471Z,98288.76
2018-12-04T22:28:27.186Z,98281.77
2018-12-04T22:31:08.509Z,98288.35
2018-12-04T22:33:41.833Z,98298.09
2018-12-04T22:36:18.977Z,98315.19
2018-12-04T22:38:56.380Z,98320.96
2018-12-04T22:41:29.582Z,98315.92
2018-12-04T22:44:02.179Z,98317.86
2018-12-04T22:46:35.167Z,98322.14
2018-12-04T22:49:07.972Z,98324.08
2018-12-04T22:51:40.895Z,98324.58
2018-12-04T22:54:18.824Z,98339.77
2018-12-04T22:56:51.681Z,98338.26
2018-12-04T22:59:24.406Z,98339.98
2018-12-04T23:09:34.171Z,98351.34
2018-12-04T23:12:06.672Z,98356.68
2018-12-04T23:14:42.909Z,98358.73
2018-12-04T23:17:19.149Z,98349.70
2018-12-04T23:19:55.240Z,98350.14
2018-12-04T23:22:28.199Z,98365.89
2018-12-04T23:25:00.911Z,98366.22
2018-12-04T23:27:33.176Z,98365.60
2018-12-04T23:30:07.559Z,98372.67
2018-12-04T23:32:38.140Z,98384.53
2018-12-04T23:38:41.621Z,98379.95
2018-12-04T23:41:17.644Z,98380.28
2018-12-04T23:43:50.441Z,98379.73
2018-12-04T23:46:23.459Z,98384.09
2018-12-04T23:48:55.591Z,98394.92
2018-12-04T23:51:31.870Z,98399.37
2018-12-04T23:54:04.797Z,98404.64
2018-12-04T23:56:41.632Z,98403.59
2018-12-04T23:59:14.540Z,98412.03
